createdAt,value
2018-07-21T00:04:45.177Z,20.32
2018-07-21T00:09:47.353Z,20.13
2018-07-21T00:14:49.589Z,20.21
2018-07-21T00:19:51.728Z,20.05
2018-07-21T00:24:53.910Z,20.10
2018-07-21T00:29:56.078Z,20.22
2018-07-21T00:34:58.270Z,20.32
2018-07-21T00:40:00.368Z,20.31
2018-07-21T00:45:02.560Z,20.06
2018-07-21T00:50:05.163Z,20.05
2018-07-21T00:55:07.323Z,19.89
2018-07-21T01:00:09.508Z,19.78
2018-07-21T01:05:11.694Z,19.82
2018-07-21T01:10:13.836Z,19.77
2018-07-21T01:15:15.994Z,19.64
2018-07-21T01:20:18.175Z,19.60
2018-07-21T01:25:20.352Z,19.44
2018-07-21T01:30:22.508Z,19.44
2018-07-21T01:35:24.690Z,19.41
2018-07-21T01:40:26.824Z,19.31
2018-07-21T01:45:29.017Z,19.24
2018-07-21T01:50:31.164Z,19.11
2018-07-21T01:55:33.282Z,19.04
2018-07-21T02:00:35.423Z,18.94
2018-07-21T02:05:37.579Z,18.79
2018-07-21T02:10:39.715Z,18.93
2018-07-21T02:15:41.861Z,18.99
2018-07-21T02:20:44.005Z,18.87
2018-07-21T02:25:46.193Z,18.83
2018-07-21T02:30:48.337Z,18.85
2018-07-21T02:35:50.566Z,18.78
2018-07-21T02:40:52.726Z,18.74
2018-07-21T02:45:54.863Z,18.74
2018-07-21T02:50:57.195Z,18.64
2018-07-21T02:55:59.359Z,18.55
2018-07-21T03:01:01.490Z,18.40
2018-07-21T03:06:03.660Z,18.52
2018-07-21T03:11:05.826Z,18.47
2018-07-21T03:16:08.032Z,18.28
2018-07-21T03:21:10.187Z,18.37
2018-07-21T03:26:12.355Z,18.42
2018-07-21T03:31:14.469Z,18.33
2018-07-21T03:36:16.628Z,18.37
2018-07-21T03:41:18.899Z,18.31
2018-07-21T03:46:21.020Z,18.42
2018-07-21T03:51:23.125Z,18.30
2018-07-21T03:56:25.293Z,18.32
2018-07-21T04:01:27.445Z,18.32
2018-07-21T04:06:29.583Z,18.12
2018-07-21T04:11:31.701Z,18.30
2018-07-21T04:16:33.901Z,18.43
2018-07-21T04:21:36.068Z,18.45
2018-07-21T04:26:38.290Z,18.57
2018-07-21T04:31:40.399Z,18.49
2018-07-21T04:36:42.539Z,18.74
2018-07-21T04:41:44.657Z,18.81
2018-07-21T04:46:46.787Z,19.02
2018-07-21T04:51:48.911Z,19.16
2018-07-21T04:56:51.179Z,19.24
2018-07-21T05:01:53.343Z,19.23
2018-07-21T05:06:55.469Z,19.30
2018-07-21T05:11:57.606Z,19.27
2018-07-21T05:16:59.751Z,19.43
2018-07-21T05:22:01.867Z,19.66
2018-07-21T05:27:04.017Z,19.93
2018-07-21T05:32:06.301Z,20.11
2018-07-21T05:37:08.829Z,20.21
2018-07-21T05:42:10.989Z,20.34
2018-07-21T05:47:13.093Z,20.51
2018-07-21T05:52:15.261Z,20.58
2018-07-21T05:57:17.417Z,20.74
2018-07-21T06:02:19.527Z,21.00
2018-07-21T06:07:21.671Z,21.21
2018-07-21T06:12:23.836Z,21.31
2018-07-21T06:17:25.999Z,21.55
2018-07-21T06:22:28.144Z,21.59
2018-07-21T06:27:30.326Z,21.94
2018-07-21T06:32:32.453Z,22.11
2018-07-21T06:37:34.609Z,22.24
2018-07-21T06:42:36.743Z,22.28
2018-07-21T06:47:38.888Z,22.58
2018-07-21T06:52:41.049Z,22.73
2018-07-21T06:57:43.917Z,22.91
2018-07-21T07:02:46.063Z,22.86
2018-07-21T07:07:48.211Z,22.74
2018-07-21T07:12:50.347Z,22.91
2018-07-21T07:17:52.533Z,23.27
2018-07-21T07:22:54.694Z,23.29
2018-07-21T07:27:57.536Z,23.48
2018-07-21T07:32:59.694Z,23.65
2018-07-21T07:38:01.896Z,23.73
2018-07-21T07:43:04.367Z,23.92
2018-07-21T07:48:06.522Z,23.99
2018-07-21T07:53:08.714Z,24.13
2018-07-21T07:58:10.862Z,24.11
2018-07-21T08:03:13.883Z,23.93
2018-07-21T08:08:16.073Z,23.93
2018-07-21T08:13:18.260Z,24.04
2018-07-21T08:18:20.417Z,24.00
2018-07-21T08:23:22.627Z,24.00
2018-07-21T08:28:24.809Z,24.47
2018-07-21T08:33:27.016Z,24.78
2018-07-21T08:38:29.266Z,24.84
2018-07-21T08:43:31.471Z,24.99
2018-07-21T08:48:33.672Z,25.05
2018-07-21T08:53:36.383Z,25.14
2018-07-21T08:58:43.570Z,25.46
2018-07-21T09:03:45.778Z,25.48
2018-07-21T09:08:47.963Z,25.49
2018-07-21T09:13:55.889Z,25.38
2018-07-21T09:18:59.104Z,25.50
2018-07-21T09:24:01.322Z,25.57
2018-07-21T09:29:03.612Z,25.69
2018-07-21T09:34:05.884Z,25.72
2018-07-21T09:39:09.178Z,25.83
2018-07-21T09:44:11.419Z,25.89
2018-07-21T09:49:13.604Z,25.88
2018-07-21T09:54:15.802Z,25.83
2018-07-21T09:59:18.110Z,25.72
2018-07-21T10:04:20.301Z,25.77
2018-07-21T10:09:22.503Z,26.16
2018-07-21T10:14:24.680Z,26.27
2018-07-21T10:19:26.879Z,26.43
2018-07-21T10:24:34.933Z,26.27
2018-07-21T10:29:37.122Z,26.45
2018-07-21T10:34:39.290Z,26.57
2018-07-21T10:39:41.507Z,26.86
2018-07-21T10:44:43.695Z,26.83
2018-07-21T10:49:45.881Z,27.08
2018-07-21T10:54:48.052Z,27.18
2018-07-21T10:59:50.211Z,26.92
2018-07-21T11:04:52.366Z,27.12
2018-07-21T11:09:54.588Z,27.33
2018-07-21T11:14:57.023Z,27.57
2018-07-21T11:19:59.231Z,27.87
2018-07-21T11:25:01.467Z,28.35
2018-07-21T11:30:04.435Z,28.60
2018-07-21T11:35:06.692Z,29.05
2018-07-21T11:40:09.005Z,29.07
2018-07-21T11:45:11.282Z,29.00
2018-07-21T11:50:13.484Z,28.11
2018-07-21T11:55:15.662Z,28.24
2018-07-21T12:00:17.845Z,28.89
2018-07-21T12:05:19.996Z,29.26
2018-07-21T12:10:22.453Z,29.35
2018-07-21T12:15:24.657Z,28.84
2018-07-21T12:20:26.901Z,28.76
2018-07-21T12:25:28.991Z,28.51
2018-07-21T12:30:31.235Z,28.16
2018-07-21T12:35:33.887Z,27.84
2018-07-21T12:40:36.108Z,28.13
2018-07-21T12:45:38.251Z,28.16
2018-07-21T12:50:40.459Z,27.93
2018-07-21T12:55:42.644Z,28.19
2018-07-21T13:00:44.791Z,28.42
2018-07-21T13:05:46.996Z,28.70
2018-07-21T13:10:49.163Z,29.04
2018-07-21T13:15:51.366Z,29.45
2018-07-21T13:20:53.596Z,29.13
2018-07-21T13:25:55.764Z,29.22
2018-07-21T13:30:57.946Z,29.65
2018-07-21T13:36:00.128Z,30.17
2018-07-21T13:41:02.348Z,30.55
2018-07-21T13:46:04.517Z,30.72
2018-07-21T13:51:06.863Z,30.68
2018-07-21T13:56:09.016Z,30.67
2018-07-21T14:01:11.194Z,30.92
2018-07-21T14:06:13.402Z,31.31
2018-07-21T14:11:15.602Z,31.54
2018-07-21T14:16:18.261Z,31.60
2018-07-21T14:21:20.448Z,31.90
2018-07-21T14:26:22.595Z,31.43
2018-07-21T14:31:24.818Z,31.64
2018-07-21T14:36:27.092Z,31.97
2018-07-21T14:41:29.233Z,32.17
2018-07-21T14:46:31.395Z,32.38
2018-07-21T14:51:33.654Z,32.18
2018-07-21T14:56:35.822Z,31.62
2018-07-21T15:01:38.043Z,30.71
2018-07-21T15:06:40.198Z,30.74
2018-07-21T15:11:42.378Z,30.54
2018-07-21T15:16:44.594Z,29.97
2018-07-21T15:21:46.732Z,29.68
2018-07-21T15:26:48.982Z,29.37
2018-07-21T15:31:51.140Z,29.17
2018-07-21T15:36:53.303Z,29.17
2018-07-21T15:41:55.524Z,29.46
2018-07-21T15:46:58.062Z,29.66
2018-07-21T15:52:00.299Z,29.54
2018-07-21T15:57:02.434Z,29.09
2018-07-21T16:02:04.634Z,28.86
2018-07-21T16:07:06.825Z,28.65
2018-07-21T16:12:09.069Z,28.80
2018-07-21T16:17:11.239Z,28.71
2018-07-21T16:22:13.456Z,28.57
2018-07-21T16:27:15.684Z,28.47
2018-07-21T16:32:17.905Z,28.39
2018-07-21T16:37:20.064Z,28.29
2018-07-21T16:42:22.252Z,28.45
2018-07-21T16:47:24.438Z,28.42
2018-07-21T16:52:26.593Z,28.07
2018-07-21T16:57:28.764Z,27.81
2018-07-21T17:02:30.908Z,27.63
2018-07-21T17:07:33.082Z,27.56
2018-07-21T17:12:35.261Z,27.58
2018-07-21T17:17:37.456Z,27.74
2018-07-21T17:22:39.603Z,28.10
2018-07-21T17:27:41.772Z,28.05
2018-07-21T17:32:43.952Z,27.86
2018-07-21T17:37:46.163Z,27.61
2018-07-21T17:42:48.514Z,27.39
2018-07-21T17:47:50.765Z,27.20
2018-07-21T17:52:52.934Z,26.99
2018-07-21T17:57:55.076Z,26.81
2018-07-21T18:02:57.218Z,26.69
2018-07-21T18:07:59.402Z,26.69
2018-07-21T18:13:01.586Z,26.55
2018-07-21T18:18:03.739Z,26.55
2018-07-21T18:23:05.954Z,26.54
2018-07-21T18:28:08.134Z,26.50
2018-07-21T18:33:10.353Z,26.34
2018-07-21T18:38:12.530Z,26.11
2018-07-21T18:43:14.737Z,26.08
2018-07-21T18:48:16.897Z,26.00
2018-07-21T18:53:19.184Z,25.84
2018-07-21T18:58:21.361Z,25.84
2018-07-21T19:03:23.920Z,25.78
2018-07-21T19:09:29.296Z,25.80
2018-07-21T19:14:31.535Z,25.64
2018-07-21T19:19:39.556Z,25.67
2018-07-21T19:24:41.757Z,25.58
2018-07-21T19:29:43.927Z,25.55
2018-07-21T19:34:46.143Z,25.55
2018-07-21T19:39:48.306Z,25.47
2018-07-21T19:44:50.549Z,25.51
2018-07-21T19:49:52.784Z,25.37
2018-07-21T19:54:54.928Z,25.28
2018-07-21T19:59:57.083Z,25.27
2018-07-21T20:04:59.296Z,25.20
2018-07-21T20:10:01.500Z,25.12
2018-07-21T20:15:03.760Z,25.10
2018-07-21T20:20:06.869Z,25.10
2018-07-21T20:25:09.071Z,25.09
2018-07-21T20:30:11.293Z,25.01
2018-07-21T20:35:13.501Z,24.97
2018-07-21T20:40:15.686Z,24.94
2018-07-21T20:45:17.919Z,24.89
2018-07-21T20:50:20.117Z,24.87
2018-07-21T20:55:22.311Z,24.79
2018-07-21T21:00:24.621Z,24.74
2018-07-21T21:05:26.788Z,24.70
2018-07-21T21:10:29.024Z,24.70
2018-07-21T21:15:31.254Z,24.65
2018-07-21T21:20:33.451Z,24.62
2018-07-21T21:25:35.822Z,24.58
2018-07-21T21:30:38.046Z,24.57
2018-07-21T21:35:40.212Z,24.53
2018-07-21T21:40:42.422Z,24.56
2018-07-21T21:45:44.623Z,24.54
2018-07-21T21:50:46.863Z,24.51
2018-07-21T21:55:49.073Z,24.43
2018-07-21T22:00:59.219Z,24.26
2018-07-21T22:06:01.421Z,24.29
2018-07-21T22:11:04.048Z,24.29
2018-07-21T22:16:06.256Z,24.22
2018-07-21T22:21:08.451Z,24.12
2018-07-21T22:26:10.637Z,24.09
2018-07-21T22:36:14.496Z,24.02
2018-07-21T22:41:16.674Z,23.99
2018-07-21T22:46:18.870Z,23.92
2018-07-21T22:51:21.038Z,23.82
2018-07-21T22:56:23.185Z,23.76
2018-07-21T23:01:25.371Z,23.79
2018-07-21T23:06:27.541Z,23.70
2018-07-21T23:11:29.688Z,23.65
2018-07-21T23:16:31.904Z,23.70
2018-07-21T23:21:34.072Z,23.57
2018-07-21T23:26:36.244Z,23.51
2018-07-21T23:31:38.424Z,23.50
2018-07-21T23:36:40.631Z,23.47
2018-07-21T23:41:42.831Z,23.49
2018-07-21T23:46:44.969Z,23.41
2018-07-21T23:51:47.148Z,23.46
2018-07-21T23:56:49.259Z,23.50
